createdAt,value
2024-02-26T00:00:04.926Z,7.983
2024-02-26T00:01:03.635Z,8.011
2024-02-26T00:02:03.529Z,8.013
2024-02-26T00:03:03.539Z,7.992
2024-02-26T00:04:03.116Z,7.964
2024-02-26T00:05:04.038Z,7.960
2024-02-26T00:06:03.189Z,7.952
2024-02-26T00:07:04.390Z,7.934
2024-02-26T00:08:06.580Z,7.947
2024-02-26T00:09:03.781Z,7.945
2024-02-26T00:10:03.503Z,7.952
2024-02-26T00:11:03.775Z,7.938
2024-02-26T00:12:03.595Z,7.934
2024-02-26T00:13:03.213Z,7.929
2024-02-26T00:14:02.756Z,7.932
2024-02-26T00:15:04.070Z,7.909
2024-02-26T00:16:03.780Z,7.905
2024-02-26T00:17:04.053Z,7.889
2024-02-26T00:18:04.243Z,7.893
2024-02-26T00:19:04.048Z,7.889
2024-02-26T00:20:03.592Z,7.883
2024-02-26T00:21:03.344Z,7.889
2024-02-26T00:22:03.046Z,7.894
2024-02-26T00:23:03.778Z,7.888
2024-02-26T00:24:03.530Z,7.896
2024-02-26T00:25:03.383Z,7.900
2024-02-26T00:26:02.980Z,7.878
2024-02-26T00:27:03.997Z,7.880
2024-02-26T00:28:03.610Z,7.886
2024-02-26T00:29:03.414Z,7.878
2024-02-26T00:30:03.497Z,7.860
2024-02-26T00:31:03.199Z,7.858
2024-02-26T00:32:02.985Z,7.864
2024-02-26T00:33:04.003Z,7.856
2024-02-26T00:34:04.169Z,7.846
2024-02-26T00:35:03.492Z,7.840
2024-02-26T00:36:03.205Z,7.831
2024-02-26T00:37:02.887Z,7.836
2024-02-26T00:38:03.497Z,7.840
2024-02-26T00:39:03.484Z,7.820
2024-02-26T00:40:03.351Z,7.828
2024-02-26T00:41:03.139Z,7.841
2024-02-26T00:42:03.115Z,7.808
2024-02-26T00:43:03.731Z,7.806
2024-02-26T00:44:03.449Z,7.791
2024-02-26T00:45:03.392Z,7.803
2024-02-26T00:46:03.174Z,7.780
2024-02-26T00:47:03.148Z,7.771
2024-02-26T00:48:03.960Z,7.760
2024-02-26T00:49:04.546Z,7.751
2024-02-26T00:50:03.506Z,7.758
2024-02-26T00:51:03.405Z,7.766
2024-02-26T00:52:02.979Z,7.780
2024-02-26T00:53:03.858Z,7.795
2024-02-26T00:54:04.127Z,7.800
2024-02-26T00:55:03.495Z,7.796
2024-02-26T00:56:03.331Z,7.753
2024-02-26T00:57:03.171Z,7.751
2024-02-26T00:58:02.933Z,7.763
2024-02-26T00:59:03.760Z,7.771
2024-02-26T01:00:04.736Z,7.761
2024-02-26T01:01:03.056Z,7.753
2024-02-26T01:02:04.088Z,7.753
2024-02-26T01:03:03.109Z,7.738
2024-02-26T01:04:03.962Z,7.75
2024-02-26T01:05:03.467Z,7.738
2024-02-26T01:06:03.806Z,7.718
2024-02-26T01:07:03.402Z,7.703
2024-02-26T01:08:04.218Z,7.699
2024-02-26T01:09:03.641Z,7.698
2024-02-26T01:10:03.309Z,7.696
2024-02-26T01:11:03.218Z,7.690
2024-02-26T01:12:03.029Z,7.699
2024-02-26T01:13:03.786Z,7.699
2024-02-26T01:14:03.473Z,7.679
2024-02-26T01:15:03.786Z,7.688
2024-02-26T01:16:02.989Z,7.696
2024-02-26T01:17:03.937Z,7.684
2024-02-26T01:18:04.300Z,7.661
2024-02-26T01:19:04.089Z,7.646
2024-02-26T01:20:03.810Z,7.641
2024-02-26T01:21:03.440Z,7.639
2024-02-26T01:22:03.004Z,7.630
2024-02-26T01:23:03.830Z,7.623
2024-02-26T01:24:03.718Z,7.613
2024-02-26T01:25:03.286Z,7.617
2024-02-26T01:26:03.062Z,7.630
2024-02-26T01:27:02.926Z,7.621
2024-02-26T01:28:03.657Z,7.616
2024-02-26T01:29:03.380Z,7.619
2024-02-26T01:30:03.409Z,7.593
2024-02-26T01:31:03.228Z,7.568
2024-02-26T01:32:04.004Z,7.550
2024-02-26T01:33:03.248Z,7.544
2024-02-26T01:34:04.368Z,7.541
2024-02-26T01:35:03.481Z,7.525
2024-02-26T01:36:03.502Z,7.519
2024-02-26T01:37:03.015Z,7.519
2024-02-26T01:38:03.706Z,7.5
2024-02-26T01:39:03.534Z,7.512
2024-02-26T01:40:03.281Z,7.521
2024-02-26T01:41:02.805Z,7.465
2024-02-26T01:42:03.764Z,7.455
2024-02-26T01:43:03.297Z,7.474
2024-02-26T01:44:03.177Z,7.507
2024-02-26T01:45:03.529Z,7.525
2024-02-26T01:46:03.040Z,7.524
2024-02-26T01:47:03.936Z,7.514
2024-02-26T01:48:04.445Z,7.493
2024-02-26T01:49:04.170Z,7.483
2024-02-26T01:50:03.518Z,7.486
2024-02-26T01:51:03.430Z,7.495
2024-02-26T01:52:03.154Z,7.515
2024-02-26T01:53:02.704Z,7.501
2024-02-26T01:54:03.917Z,7.5
2024-02-26T01:55:03.451Z,7.5
2024-02-26T01:56:03.262Z,7.483
2024-02-26T01:57:03.148Z,7.491
2024-02-26T01:58:02.789Z,7.481
2024-02-26T01:59:03.723Z,7.480
2024-02-26T02:00:04.718Z,7.481
2024-02-26T02:01:03.378Z,7.466
2024-02-26T02:02:03.248Z,7.449
2024-02-26T02:03:02.934Z,7.453
2024-02-26T02:04:04.011Z,7.460
2024-02-26T02:05:03.441Z,7.460
2024-02-26T02:06:03.586Z,7.465
2024-02-26T02:07:03.297Z,7.488
2024-02-26T02:08:03.807Z,7.468
2024-02-26T02:09:03.802Z,7.468
2024-02-26T02:10:03.406Z,7.496
2024-02-26T02:11:03.401Z,7.498
2024-02-26T02:12:03.383Z,7.498
2024-02-26T02:13:02.903Z,7.496
2024-02-26T02:14:03.715Z,7.489
2024-02-26T02:15:04.472Z,7.480
2024-02-26T02:16:03.838Z,7.465
2024-02-26T02:17:03.811Z,7.463
2024-02-26T02:18:04.126Z,7.481
2024-02-26T02:19:03.800Z,7.481
2024-02-26T02:20:03.576Z,7.489
2024-02-26T02:21:03.297Z,7.483
2024-02-26T02:22:02.790Z,7.486
2024-02-26T02:23:03.552Z,7.478
2024-02-26T02:24:03.239Z,7.469
2024-02-26T02:25:03.100Z,7.460
2024-02-26T02:26:03.694Z,7.453
2024-02-26T02:27:03.538Z,7.449
2024-02-26T02:28:03.317Z,7.434
2024-02-26T02:29:02.807Z,7.408
2024-02-26T02:30:04.216Z,7.400
2024-02-26T02:31:03.917Z,7.413
2024-02-26T02:32:03.851Z,7.425
2024-02-26T02:33:04.131Z,7.401
2024-02-26T02:34:03.856Z,7.383
2024-02-26T02:35:03.354Z,7.398
2024-02-26T02:36:03.021Z,7.428
2024-02-26T02:37:03.894Z,7.389
2024-02-26T02:38:03.752Z,7.381
2024-02-26T02:39:03.673Z,7.375
2024-02-26T02:40:03.505Z,7.349
2024-02-26T02:41:03.388Z,7.328
2024-02-26T02:42:03.288Z,7.336
2024-02-26T02:43:03.084Z,7.341
2024-02-26T02:44:03.968Z,7.344
2024-02-26T02:45:04.122Z,7.364
2024-02-26T02:46:03.787Z,7.368
2024-02-26T02:47:03.810Z,7.355
2024-02-26T02:48:04.021Z,7.349
2024-02-26T02:49:03.516Z,7.349
2024-02-26T02:50:03.164Z,7.353
2024-02-26T02:51:02.885Z,7.340
2024-02-26T02:52:03.580Z,7.329
2024-02-26T02:53:03.414Z,7.320
2024-02-26T02:54:03.336Z,7.333
2024-02-26T02:55:02.978Z,7.329
2024-02-26T02:56:03.704Z,7.328
2024-02-26T02:57:03.865Z,7.325
2024-02-26T02:58:03.652Z,7.317
2024-02-26T02:59:03.314Z,7.321
2024-02-26T03:00:04.445Z,7.329
2024-02-26T03:01:04.047Z,7.338
2024-02-26T03:02:03.638Z,7.342
2024-02-26T03:03:03.417Z,7.372
2024-02-26T03:04:03.180Z,7.389
2024-02-26T03:05:03.134Z,7.371
2024-02-26T03:06:03.999Z,7.346
2024-02-26T03:07:03.981Z,7.321
2024-02-26T03:08:03.295Z,7.303
2024-02-26T03:09:03.332Z,7.294
2024-02-26T03:10:03.019Z,7.311
2024-02-26T03:11:04.034Z,7.322
2024-02-26T03:12:03.970Z,7.308
2024-02-26T03:13:03.469Z,7.295
2024-02-26T03:14:03.276Z,7.314
2024-02-26T03:15:03.458Z,7.324
2024-02-26T03:16:03.058Z,7.335
2024-02-26T03:17:03.965Z,7.321
2024-02-26T03:18:04.267Z,7.296
2024-02-26T03:19:04.302Z,7.298
2024-02-26T03:20:03.847Z,7.298
2024-02-26T03:21:03.659Z,7.286
2024-02-26T03:22:03.382Z,7.286
2024-02-26T03:23:03.061Z,7.303
2024-02-26T03:24:03.981Z,7.316
2024-02-26T03:25:03.771Z,7.309
2024-02-26T03:26:03.469Z,7.303
2024-02-26T03:27:03.392Z,7.338
2024-02-26T03:28:03.095Z,7.328
2024-02-26T03:29:02.934Z,7.349
2024-02-26T03:30:04.182Z,7.340
2024-02-26T03:31:03.955Z,7.333
2024-02-26T03:32:04.131Z,7.351
2024-02-26T03:33:04.223Z,7.329
2024-02-26T03:34:03.991Z,7.306
2024-02-26T03:35:03.595Z,7.289
2024-02-26T03:36:03.581Z,7.293
2024-02-26T03:37:02.813Z,7.298
2024-02-26T03:38:03.657Z,7.303
2024-02-26T03:39:03.422Z,7.286
2024-02-26T03:40:03.465Z,7.286
2024-02-26T03:41:03.365Z,7.291
2024-02-26T03:42:03.123Z,7.309
2024-02-26T03:43:02.876Z,7.328
2024-02-26T03:44:03.671Z,7.323
2024-02-26T03:45:03.796Z,7.304
2024-02-26T03:46:03.572Z,7.296
2024-02-26T03:47:03.439Z,7.296
2024-02-26T03:48:03.672Z,7.293
2024-02-26T03:49:03.416Z,7.288
2024-02-26T03:50:02.892Z,7.278
2024-02-26T03:51:03.797Z,7.293
2024-02-26T03:52:03.327Z,7.289
2024-02-26T03:53:03.091Z,7.296
2024-02-26T03:54:02.915Z,7.295
2024-02-26T03:55:03.843Z,7.303
2024-02-26T03:56:03.555Z,7.293
2024-02-26T03:57:03.512Z,7.295
2024-02-26T03:58:03.142Z,7.301
2024-02-26T03:59:02.873Z,7.289
2024-02-26T04:00:04.985Z,7.289
2024-02-26T04:01:02.986Z,7.300
2024-02-26T04:02:03.713Z,7.298
2024-02-26T04:03:03.446Z,7.301
2024-02-26T04:04:03.262Z,7.296
2024-02-26T04:05:03.279Z,7.306
2024-02-26T04:06:04.105Z,7.313
2024-02-26T04:07:04.158Z,7.318
2024-02-26T04:08:03.138Z,7.316
2024-02-26T04:09:02.961Z,7.288
2024-02-26T04:10:07.617Z,7.284
2024-02-26T04:11:03.835Z,7.289
2024-02-26T04:12:03.415Z,7.295
2024-02-26T04:13:03.069Z,7.300
2024-02-26T04:14:02.837Z,7.296
2024-02-26T04:15:04.072Z,7.288
2024-02-26T04:16:03.762Z,7.286
2024-02-26T04:17:03.710Z,7.286
2024-02-26T04:18:04.066Z,7.295
2024-02-26T04:19:03.526Z,7.296
2024-02-26T04:20:02.967Z,7.302
2024-02-26T04:21:03.809Z,7.298
2024-02-26T04:22:03.695Z,7.300
2024-02-26T04:23:03.340Z,7.287
2024-02-26T04:24:03.473Z,7.285
2024-02-26T04:25:02.991Z,7.287
2024-02-26T04:26:03.803Z,7.303
2024-02-26T04:27:03.721Z,7.285
2024-02-26T04:28:03.318Z,7.280
2024-02-26T04:29:03.061Z,7.285
2024-02-26T04:30:04.517Z,7.268
2024-02-26T04:31:03.139Z,7.238
2024-02-26T04:32:04.102Z,7.234
2024-02-26T04:33:03.234Z,7.234
2024-02-26T04:34:04.368Z,7.216
2024-02-26T04:35:04.131Z,7.215
2024-02-26T04:36:04.180Z,7.230
2024-02-26T04:37:03.779Z,7.239
2024-02-26T04:38:03.368Z,7.25
2024-02-26T04:39:03.302Z,7.241
2024-02-26T04:40:03.229Z,7.237
2024-02-26T04:41:03.058Z,7.224
2024-02-26T04:42:03.849Z,7.223
2024-02-26T04:43:03.320Z,7.202
2024-02-26T04:44:03.275Z,7.191
2024-02-26T04:45:03.565Z,7.190
2024-02-26T04:46:03.133Z,7.193
2024-02-26T04:47:03.253Z,7.181
2024-02-26T04:48:03.402Z,7.164
2024-02-26T04:49:04.330Z,7.171
2024-02-26T04:50:03.530Z,7.164
2024-02-26T04:51:03.262Z,7.161
2024-02-26T04:52:03.045Z,7.168
2024-02-26T04:53:03.787Z,7.146
2024-02-26T04:54:03.596Z,7.133
2024-02-26T04:55:03.251Z,7.148
2024-02-26T04:56:03.118Z,7.138
2024-02-26T04:57:03.115Z,7.136
2024-02-26T04:58:03.966Z,7.155
2024-02-26T04:59:03.798Z,7.168
2024-02-26T05:00:04.705Z,7.168
2024-02-26T05:01:03.180Z,7.175
2024-02-26T05:02:04.009Z,7.170
2024-02-26T05:03:04.202Z,7.155
2024-02-26T05:04:04.074Z,7.166
2024-02-26T05:05:03.805Z,7.170
2024-02-26T05:06:03.639Z,7.166
2024-02-26T05:07:03.658Z,7.183
2024-02-26T05:08:02.932Z,7.178
2024-02-26T05:09:03.955Z,7.159
2024-02-26T05:10:03.653Z,7.173
2024-02-26T05:11:03.628Z,7.208
2024-02-26T05:12:03.332Z,7.211
2024-02-26T05:13:03.026Z,7.210
2024-02-26T05:14:02.786Z,7.203
2024-02-26T05:15:04.098Z,7.215
2024-02-26T05:16:03.965Z,7.235
2024-02-26T05:17:04.023Z,7.228
2024-02-26T05:18:04.825Z,7.230
2024-02-26T05:19:04.032Z,7.213
2024-02-26T05:20:03.787Z,7.231
2024-02-26T05:21:03.493Z,7.218
2024-02-26T05:22:03.167Z,7.216
2024-02-26T05:23:02.870Z,7.216
2024-02-26T05:24:03.860Z,7.201
2024-02-26T05:25:03.422Z,7.224
2024-02-26T05:26:03.424Z,7.224
2024-02-26T05:27:03.488Z,7.221
2024-02-26T05:28:03.245Z,7.218
2024-02-26T05:29:03.822Z,7.218
2024-02-26T05:30:03.985Z,7.221
2024-02-26T05:31:03.528Z,7.223
2024-02-26T05:32:03.437Z,7.219
2024-02-26T05:33:03.493Z,7.198
2024-02-26T05:34:03.532Z,7.204
2024-02-26T05:35:04.087Z,7.199
2024-02-26T05:36:03.705Z,7.203
2024-02-26T05:37:03.372Z,7.195
2024-02-26T05:38:03.093Z,7.190
2024-02-26T05:39:03.022Z,7.181
2024-02-26T05:40:03.688Z,7.166
2024-02-26T05:41:03.495Z,7.151
2024-02-26T05:42:03.295Z,7.155
2024-02-26T05:43:03.776Z,7.163
2024-02-26T05:44:03.384Z,7.143
2024-02-26T05:45:03.533Z,7.151
2024-02-26T05:46:03.270Z,7.175
2024-02-26T05:47:07.620Z,7.175
2024-02-26T05:48:04.074Z,7.184
2024-02-26T05:49:03.704Z,7.195
2024-02-26T05:50:03.304Z,7.186
2024-02-26T05:51:03.187Z,7.191
2024-02-26T05:52:02.802Z,7.210
2024-02-26T05:53:03.643Z,7.210
2024-02-26T05:54:03.475Z,7.199
2024-02-26T05:55:02.959Z,7.217
2024-02-26T05:56:03.770Z,7.236
2024-02-26T05:57:03.791Z,7.210
2024-02-26T05:58:03.315Z,7.190
2024-02-26T05:59:03.093Z,7.197
2024-02-26T06:00:05.381Z,7.202
2024-02-26T06:01:03.880Z,7.219
2024-02-26T06:02:03.527Z,7.228
2024-02-26T06:03:03.127Z,7.224
2024-02-26T06:04:03.968Z,7.211
2024-02-26T06:05:03.631Z,7.188
2024-02-26T06:06:03.634Z,7.185
2024-02-26T06:07:03.197Z,7.175
2024-02-26T06:08:02.844Z,7.173
2024-02-26T06:09:03.711Z,7.177
2024-02-26T06:10:03.457Z,7.165
2024-02-26T06:11:03.488Z,7.177
2024-02-26T06:12:03.300Z,7.171
2024-02-26T06:13:02.883Z,7.156
2024-02-26T06:14:05.298Z,7.126
2024-02-26T06:15:04.093Z,7.114
2024-02-26T06:16:03.512Z,7.128
2024-02-26T06:17:03.528Z,7.125
2024-02-26T06:18:03.529Z,7.138
2024-02-26T06:19:03.592Z,7.123
2024-02-26T06:20:03.404Z,7.118
2024-02-26T06:21:04.085Z,7.108
2024-02-26T06:22:03.811Z,7.116
2024-02-26T06:23:03.566Z,7.131
2024-02-26T06:24:03.270Z,7.111
2024-02-26T06:25:03.192Z,7.108
2024-02-26T06:26:02.787Z,7.099
2024-02-26T06:27:03.989Z,7.094
2024-02-26T06:28:03.557Z,7.096
2024-02-26T06:29:03.396Z,7.091
2024-02-26T06:30:03.400Z,7.078
2024-02-26T06:31:03.209Z,7.071
2024-02-26T06:32:03.112Z,7.054
2024-02-26T06:33:04.181Z,7.046
2024-02-26T06:34:04.057Z,7.051
2024-02-26T06:35:08.517Z,7.061
2024-02-26T06:36:03.829Z,7.050
2024-02-26T06:37:03.583Z,7.050
2024-02-26T06:38:03.272Z,7.050
2024-02-26T06:39:03.290Z,7.063
2024-02-26T06:40:02.998Z,7.063
2024-02-26T06:41:03.137Z,7.050
2024-02-26T06:42:04.129Z,7.059
2024-02-26T06:43:03.619Z,7.066
2024-02-26T06:44:03.408Z,7.070
2024-02-26T06:45:03.444Z,7.045
2024-02-26T06:46:03.377Z,7.031
2024-02-26T06:47:03.870Z,7.056
2024-02-26T06:48:04.287Z,7.094
2024-02-26T06:49:04.053Z,7.096
2024-02-26T06:50:03.720Z,7.094
2024-02-26T06:51:03.202Z,7.078
2024-02-26T06:52:02.822Z,7.078
2024-02-26T06:53:03.560Z,7.086
2024-02-26T06:54:03.418Z,7.103
2024-02-26T06:55:03.239Z,7.103
2024-02-26T06:56:02.936Z,7.110
2024-02-26T06:57:03.998Z,7.116
2024-02-26T06:58:03.616Z,7.146
2024-02-26T06:59:03.560Z,7.146
2024-02-26T07:00:04.741Z,7.155
2024-02-26T07:01:03.742Z,7.183
2024-02-26T07:02:03.485Z,7.211
2024-02-26T07:03:03.466Z,7.221
2024-02-26T07:04:03.369Z,7.221
2024-02-26T07:05:02.967Z,7.239
2024-02-26T07:06:03.272Z,7.275
2024-02-26T07:07:04.084Z,7.275
2024-02-26T07:08:03.266Z,7.255
2024-02-26T07:09:03.275Z,7.260
2024-02-26T07:10:02.929Z,7.251
2024-02-26T07:11:03.213Z,7.246
2024-02-26T07:12:03.039Z,7.219
2024-02-26T07:13:03.671Z,7.216
2024-02-26T07:14:03.484Z,7.206
2024-02-26T07:15:03.595Z,7.224
2024-02-26T07:16:03.384Z,7.253
2024-02-26T07:17:03.532Z,7.238
2024-02-26T07:18:03.726Z,7.231
2024-02-26T07:19:03.369Z,7.197
2024-02-26T07:20:07.806Z,7.199
2024-02-26T07:21:03.789Z,7.197
2024-02-26T07:22:03.307Z,7.197
2024-02-26T07:23:03.256Z,7.202
2024-02-26T07:24:03.999Z,7.203
2024-02-26T07:25:03.677Z,7.182
2024-02-26T07:26:03.602Z,7.165
2024-02-26T07:27:03.376Z,7.167
2024-02-26T07:28:02.898Z,7.151
2024-02-26T07:29:03.847Z,7.165
2024-02-26T07:30:04.129Z,7.157
2024-02-26T07:31:03.908Z,7.150
2024-02-26T07:32:03.895Z,7.151
2024-02-26T07:33:03.658Z,7.159
2024-02-26T07:34:04.007Z,7.145
2024-02-26T07:35:03.516Z,7.141
2024-02-26T07:36:03.005Z,7.146
2024-02-26T07:37:03.821Z,7.134
2024-02-26T07:38:03.708Z,7.136
2024-02-26T07:39:03.598Z,7.130
2024-02-26T07:40:03.333Z,7.143
2024-02-26T07:41:04.772Z,7.121
2024-02-26T07:42:03.187Z,7.126
2024-02-26T07:43:03.837Z,7.131
2024-02-26T07:44:03.698Z,7.118
2024-02-26T07:45:03.967Z,7.119
2024-02-26T07:46:03.636Z,7.151
2024-02-26T07:47:03.349Z,7.144
2024-02-26T07:48:03.424Z,7.133
2024-02-26T07:49:03.283Z,7.125
2024-02-26T07:50:04.196Z,7.128
2024-02-26T07:51:03.750Z,7.118
2024-02-26T07:52:03.469Z,7.133
2024-02-26T07:53:03.406Z,7.121
2024-02-26T07:54:03.167Z,7.126
2024-02-26T07:55:07.991Z,7.146
2024-02-26T07:56:03.121Z,7.146
2024-02-26T07:57:03.063Z,7.141
2024-02-26T07:58:04.243Z,7.150
2024-02-26T07:59:03.572Z,7.123
2024-02-26T08:00:04.804Z,7.136
2024-02-26T08:01:03.413Z,7.173
2024-02-26T08:02:03.060Z,7.156
2024-02-26T08:03:03.828Z,7.164
2024-02-26T08:04:04.735Z,7.184
2024-02-26T08:05:03.843Z,7.196
2024-02-26T08:06:03.853Z,7.231
2024-02-26T08:07:03.615Z,7.230
2024-02-26T08:08:03.137Z,7.233
2024-02-26T08:09:04.005Z,7.241
2024-02-26T08:10:03.781Z,7.236
2024-02-26T08:11:03.666Z,7.244
2024-02-26T08:12:03.408Z,7.239
2024-02-26T08:13:03.192Z,7.261
2024-02-26T08:14:03.648Z,7.239
2024-02-26T08:15:04.149Z,7.273
2024-02-26T08:16:03.868Z,7.268
2024-02-26T08:17:03.678Z,7.261
2024-02-26T08:18:03.952Z,7.241
2024-02-26T08:19:03.694Z,7.255
2024-02-26T08:20:03.456Z,7.260
2024-02-26T08:21:03.437Z,7.253
2024-02-26T08:22:05.919Z,7.289
2024-02-26T08:23:03.938Z,7.256
2024-02-26T08:24:03.877Z,7.226
2024-02-26T08:25:03.552Z,7.233
2024-02-26T08:26:03.264Z,7.248
2024-02-26T08:27:03.180Z,7.248
2024-02-26T08:28:03.833Z,7.230
2024-02-26T08:29:03.707Z,7.226
2024-02-26T08:30:04.206Z,7.230
2024-02-26T08:31:03.607Z,7.231
2024-02-26T08:32:03.596Z,7.231
2024-02-26T08:33:03.662Z,7.235
2024-02-26T08:34:03.753Z,7.216
2024-02-26T08:35:03.588Z,7.204
2024-02-26T08:36:03.175Z,7.218
2024-02-26T08:37:03.904Z,7.206
2024-02-26T08:38:03.609Z,7.215
2024-02-26T08:39:03.648Z,7.235
2024-02-26T08:40:10.780Z,7.241
2024-02-26T08:41:03.949Z,7.228
2024-02-26T08:42:04.135Z,7.251
2024-02-26T08:43:03.658Z,7.238
2024-02-26T08:44:03.465Z,7.248
2024-02-26T08:45:03.637Z,7.254
2024-02-26T08:46:03.633Z,7.243
2024-02-26T08:47:03.462Z,7.254
2024-02-26T08:48:03.635Z,7.262
2024-02-26T08:49:03.672Z,7.267
2024-02-26T08:50:04.086Z,7.25
2024-02-26T08:51:03.956Z,7.244
2024-02-26T08:52:03.582Z,7.243
2024-02-26T08:53:08.111Z,7.238
2024-02-26T08:54:03.208Z,7.243
2024-02-26T08:55:04.029Z,7.244
2024-02-26T08:56:03.016Z,7.243
2024-02-26T08:57:04.157Z,7.241
2024-02-26T08:58:03.477Z,7.228
2024-02-26T08:59:03.451Z,7.237
2024-02-26T09:00:04.713Z,7.242
2024-02-26T09:01:03.528Z,7.235
2024-02-26T09:02:03.411Z,7.213
2024-02-26T09:03:06.594Z,7.218
2024-02-26T09:04:03.719Z,7.236
2024-02-26T09:05:03.581Z,7.25
2024-02-26T09:06:03.580Z,7.248
2024-02-26T09:07:03.330Z,7.244
2024-02-26T09:08:03.162Z,7.263
2024-02-26T09:09:03.355Z,7.278
2024-02-26T09:10:03.177Z,7.295
2024-02-26T09:11:03.028Z,7.326
2024-02-26T09:12:04.274Z,7.318
2024-02-26T09:13:03.563Z,7.321
2024-02-26T09:14:03.685Z,7.321
2024-02-26T09:15:03.801Z,7.343
2024-02-26T09:16:03.560Z,7.353
2024-02-26T09:17:03.526Z,7.351
2024-02-26T09:18:03.991Z,7.364
2024-02-26T09:19:03.843Z,7.376
2024-02-26T09:20:03.434Z,7.371
2024-02-26T09:21:03.303Z,7.391
2024-02-26T09:22:03.464Z,7.420
2024-02-26T09:23:03.351Z,7.411
2024-02-26T09:24:03.624Z,7.423
2024-02-26T09:25:03.378Z,7.403
2024-02-26T09:26:03.306Z,7.388
2024-02-26T09:27:03.152Z,7.361
2024-02-26T09:28:03.027Z,7.358
2024-02-26T09:29:03.091Z,7.361
2024-02-26T09:30:04.579Z,7.356
2024-02-26T09:31:04.072Z,7.376
2024-02-26T09:32:03.982Z,7.386
2024-02-26T09:33:04.019Z,7.400
2024-02-26T09:34:04.503Z,7.426
2024-02-26T09:35:03.436Z,7.448
2024-02-26T09:36:03.275Z,7.436
2024-02-26T09:37:21.614Z,7.443
2024-02-26T09:38:04.044Z,7.449
2024-02-26T09:39:03.487Z,7.456
2024-02-26T09:40:03.247Z,7.476
2024-02-26T09:41:03.140Z,7.461
2024-02-26T09:42:03.143Z,7.445
2024-02-26T09:43:03.470Z,7.461
2024-02-26T09:44:03.147Z,7.465
2024-02-26T09:45:03.931Z,7.478
2024-02-26T09:46:06.350Z,7.485
2024-02-26T09:47:03.712Z,7.489
2024-02-26T09:48:04.365Z,7.501
2024-02-26T09:49:04.104Z,7.501
2024-02-26T09:50:04.063Z,7.521
2024-02-26T09:51:03.749Z,7.546
2024-02-26T09:52:03.605Z,7.531
2024-02-26T09:53:03.630Z,7.545
2024-02-26T09:54:09.209Z,7.553
2024-02-26T09:55:03.558Z,7.561
2024-02-26T09:56:03.580Z,7.596
2024-02-26T09:57:05.789Z,7.585
2024-02-26T09:58:04.063Z,7.593
2024-02-26T09:59:03.940Z,7.625
2024-02-26T10:00:05.255Z,7.643
2024-02-26T10:01:04.132Z,7.648
2024-02-26T10:02:04.257Z,7.642
2024-02-26T10:03:03.288Z,7.630
2024-02-26T10:04:03.091Z,7.630
2024-02-26T10:05:03.504Z,7.646
2024-02-26T10:06:03.417Z,7.659
2024-02-26T10:07:03.404Z,7.627
2024-02-26T10:08:03.272Z,7.622
2024-02-26T10:09:03.432Z,7.615
2024-02-26T10:10:03.278Z,7.618
2024-02-26T10:11:03.194Z,7.614
2024-02-26T10:12:03.274Z,7.613
2024-02-26T10:13:03.248Z,7.611
2024-02-26T10:14:03.931Z,7.593
2024-02-26T10:15:04.194Z,7.614
2024-02-26T10:16:03.919Z,7.605
2024-02-26T10:17:03.931Z,7.599
2024-02-26T10:18:04.310Z,7.602
2024-02-26T10:19:04.095Z,7.595
2024-02-26T10:20:04.409Z,7.578
2024-02-26T10:21:03.597Z,7.578
2024-02-26T10:22:03.333Z,7.574
2024-02-26T10:23:03.218Z,7.571
2024-02-26T10:24:03.073Z,7.570
2024-02-26T10:25:03.382Z,7.573
2024-02-26T10:26:03.195Z,7.591
2024-02-26T10:27:03.458Z,7.610
2024-02-26T10:28:03.257Z,7.606
2024-02-26T10:29:03.128Z,7.590
2024-02-26T10:30:03.890Z,7.606
2024-02-26T10:31:03.758Z,7.585
2024-02-26T10:32:03.746Z,7.579
2024-02-26T10:33:03.772Z,7.578
2024-02-26T10:34:06.526Z,7.579
2024-02-26T10:35:03.884Z,7.565
2024-02-26T10:36:03.754Z,7.561
2024-02-26T10:37:03.848Z,7.551
2024-02-26T10:38:03.408Z,7.536
2024-02-26T10:39:03.397Z,7.519
2024-02-26T10:40:03.424Z,7.528
2024-02-26T10:41:03.251Z,7.534
2024-02-26T10:42:03.133Z,7.553
2024-02-26T10:43:03.941Z,7.553
2024-02-26T10:44:03.783Z,7.548
2024-02-26T10:45:03.990Z,7.561
2024-02-26T10:46:03.551Z,7.556
2024-02-26T10:47:03.711Z,7.559
2024-02-26T10:48:03.811Z,7.545
2024-02-26T10:49:03.652Z,7.546
2024-02-26T10:50:03.837Z,7.536
2024-02-26T10:51:03.415Z,7.559
2024-02-26T10:52:03.252Z,7.578
2024-02-26T10:53:03.197Z,7.570
2024-02-26T10:54:03.512Z,7.573
2024-02-26T10:55:03.545Z,7.579
2024-02-26T10:56:03.293Z,7.593
2024-02-26T10:57:03.670Z,7.599
2024-02-26T10:58:03.355Z,7.605
2024-02-26T10:59:03.207Z,7.605
2024-02-26T11:00:05.098Z,7.610
2024-02-26T11:01:04.062Z,7.608
2024-02-26T11:02:03.823Z,7.596
2024-02-26T11:03:03.633Z,7.601
2024-02-26T11:04:03.972Z,7.588
2024-02-26T11:05:03.652Z,7.581
2024-02-26T11:06:03.772Z,7.583
2024-02-26T11:07:03.890Z,7.601
2024-02-26T11:08:03.602Z,7.608
2024-02-26T11:09:03.510Z,7.616
2024-02-26T11:10:03.640Z,7.616
2024-02-26T11:11:03.642Z,7.601
2024-02-26T11:12:03.500Z,7.601
2024-02-26T11:13:03.353Z,7.619
2024-02-26T11:14:03.595Z,7.618
2024-02-26T11:15:04.047Z,7.625
2024-02-26T11:16:03.563Z,7.610
2024-02-26T11:17:03.650Z,7.625
2024-02-26T11:18:03.659Z,7.616
2024-02-26T11:19:03.726Z,7.599
2024-02-26T11:20:03.460Z,7.591
2024-02-26T11:21:03.619Z,7.610
2024-02-26T11:23:03.493Z,7.670
2024-02-26T11:24:03.607Z,7.693
2024-02-26T11:25:03.663Z,7.707
2024-02-26T11:26:03.483Z,7.717
2024-02-26T11:27:03.558Z,7.715
2024-02-26T11:28:03.290Z,7.703
2024-02-26T11:29:03.202Z,7.742
2024-02-26T11:30:04.044Z,7.736
2024-02-26T11:31:03.916Z,7.768
2024-02-26T11:32:03.994Z,7.785
2024-02-26T11:33:03.883Z,7.812
2024-02-26T11:34:04.040Z,7.803
2024-02-26T11:35:04.069Z,7.794
2024-02-26T11:36:03.595Z,7.785
2024-02-26T11:37:03.420Z,7.775
2024-02-26T11:38:03.480Z,7.783
2024-02-26T11:39:03.761Z,7.804
2024-02-26T11:40:03.641Z,7.791
2024-02-26T11:41:03.503Z,7.792
2024-02-26T11:42:03.456Z,7.760
2024-02-26T11:43:03.689Z,7.753
2024-02-26T11:44:03.666Z,7.760
2024-02-26T11:45:03.979Z,7.752
2024-02-26T11:46:03.641Z,7.737
2024-02-26T11:47:03.639Z,7.737
2024-02-26T11:48:03.957Z,7.743
2024-02-26T11:49:03.956Z,7.735
2024-02-26T11:50:03.676Z,7.731
2024-02-26T11:51:03.661Z,7.744
2024-02-26T11:52:03.645Z,7.741
2024-02-26T11:53:03.673Z,7.741
2024-02-26T11:54:03.604Z,7.741
2024-02-26T11:55:03.899Z,7.746
2024-02-26T11:56:03.607Z,7.755
2024-02-26T11:57:03.621Z,7.758
2024-02-26T11:58:03.330Z,7.766
2024-02-26T11:59:03.937Z,7.746
2024-02-26T12:00:04.671Z,7.744
2024-02-26T12:01:03.962Z,7.743
2024-02-26T12:02:04.327Z,7.730
2024-02-26T12:03:03.835Z,7.739
2024-02-26T12:04:03.525Z,7.710
2024-02-26T12:05:03.976Z,7.710
2024-02-26T12:06:03.743Z,7.708
2024-02-26T12:07:03.885Z,7.719
2024-02-26T12:08:08.523Z,7.736
2024-02-26T12:09:03.463Z,7.744
2024-02-26T12:10:03.699Z,7.743
2024-02-26T12:11:03.824Z,7.744
2024-02-26T12:12:03.924Z,7.735
2024-02-26T12:13:03.815Z,7.719
2024-02-26T12:14:03.563Z,7.728
2024-02-26T12:15:04.278Z,7.735
2024-02-26T12:16:03.832Z,7.728
2024-02-26T12:17:03.777Z,7.75
2024-02-26T12:18:04.132Z,7.776
2024-02-26T12:19:03.884Z,7.784
2024-02-26T12:20:04.185Z,7.809
2024-02-26T12:21:04.299Z,7.855
2024-02-26T12:22:03.594Z,7.860
2024-02-26T12:23:03.685Z,7.878
2024-02-26T12:24:03.616Z,7.853
2024-02-26T12:25:03.665Z,7.878
2024-02-26T12:26:10.711Z,7.880
2024-02-26T12:27:04.070Z,7.886
2024-02-26T12:28:03.422Z,7.878
2024-02-26T12:29:03.430Z,7.876
2024-02-26T12:30:03.987Z,7.889
2024-02-26T12:31:03.790Z,7.903
2024-02-26T12:32:08.337Z,7.888
2024-02-26T12:33:04.092Z,7.875
2024-02-26T12:34:04.109Z,7.876
2024-02-26T12:35:04.248Z,7.871
2024-02-26T12:36:03.304Z,7.889
2024-02-26T12:37:03.729Z,7.900
2024-02-26T12:38:03.591Z,7.923
2024-02-26T12:39:03.686Z,7.940
2024-02-26T12:40:03.781Z,7.934
2024-02-26T12:41:03.794Z,7.928
2024-02-26T12:42:04.363Z,7.914
2024-02-26T12:43:03.436Z,7.914
2024-02-26T12:44:03.468Z,7.925
2024-02-26T12:45:04.015Z,7.914
2024-02-26T12:46:03.766Z,7.906
2024-02-26T12:47:03.912Z,7.908
2024-02-26T12:48:04.025Z,7.906
2024-02-26T12:49:03.914Z,7.935
2024-02-26T12:50:09.392Z,7.927
2024-02-26T12:51:03.183Z,7.945
2024-02-26T12:52:03.492Z,7.947
2024-02-26T12:53:03.260Z,7.929
2024-02-26T12:54:03.308Z,7.923